Terminal Aerodrome Forecast
Issued by NWS Corpus Christi, TX

Home | Current Version | Previous Version | Text Only | Print | Product List | Glossary On
Versions: 1 2 3 4 5 6 7 8 9 10 11 12 13 14
425
FTUS44 KCRP 121725
TAFVCT
TAF
KVCT 121725Z 1218/1318 21008KT P6SM SCT035
     FM122200 15004KT P6SM SCT015
     FM130600 VRB03KT 5SM BR FEW020
      TEMPO 1306/1310 1SM BR BKN010
     FM131000 VRB03KT 1SM BR BKN005
      TEMPO 1310/1314 1/4SM FG BKN001
     FM131530 07005KT P6SM SCT010=

USA.gov is the U.S. government's official web portal to all federal, state and local government web resources and services.